sensor_id;sensor_type;location;lat;lon;timestamp;P1;durP1;ratioP1;P2;durP2;ratioP2
63398;SDS011;49533;-34.520;150.798;2022-09-23T00:00:57;3.45;;;1.80;;
63398;SDS011;49533;-34.520;150.798;2022-09-23T00:03:27;3.50;;;1.63;;
63398;SDS011;49533;-34.520;150.798;2022-09-23T00:05:58;5.88;;;1.75;;
63398;SDS011;49533;-34.520;150.798;2022-09-23T00:08:27;3.22;;;1.48;;
63398;SDS011;49533;-34.520;150.798;2022-09-23T00:10:55;5.82;;;2.20;;
63398;SDS011;49533;-34.520;150.798;2022-09-23T00:13:23;6.07;;;1.98;;
63398;SDS011;49533;-34.520;150.798;2022-09-23T00:15:51;4.75;;;2.25;;
63398;SDS011;49533;-34.520;150.798;2022-09-23T00:18:18;5.70;;;1.52;;
63398;SDS011;49533;-34.520;150.798;2022-09-23T00:20:45;4.18;;;1.83;;
63398;SDS011;49533;-34.520;150.798;2022-09-23T00:23:14;8.35;;;1.88;;
63398;SDS011;49533;-34.520;150.798;2022-09-23T00:25:41;5.90;;;1.80;;
63398;SDS011;49533;-34.520;150.798;2022-09-23T00:28:08;5.00;;;1.83;;
63398;SDS011;49533;-34.520;150.798;2022-09-23T00:30:35;4.55;;;1.80;;
63398;SDS011;49533;-34.520;150.798;2022-09-23T00:33:05;4.25;;;2.03;;
63398;SDS011;49533;-34.520;150.798;2022-09-23T00:35:32;5.07;;;1.52;;
63398;SDS011;49533;-34.520;150.798;2022-09-23T00:38:00;5.20;;;1.88;;
63398;SDS011;49533;-34.520;150.798;2022-09-23T00:40:27;6.22;;;2.00;;
63398;SDS011;49533;-34.520;150.798;2022-09-23T00:42:54;6.22;;;1.63;;
63398;SDS011;49533;-34.520;150.798;2022-09-23T00:45:21;6.50;;;2.05;;
63398;SDS011;49533;-34.520;150.798;2022-09-23T00:47:52;7.93;;;2.25;;
63398;SDS011;49533;-34.520;150.798;2022-09-23T00:50:30;6.30;;;2.00;;
63398;SDS011;49533;-34.520;150.798;2022-09-23T00:53:02;4.45;;;1.70;;
63398;SDS011;49533;-34.520;150.798;2022-09-23T00:55:39;4.72;;;1.52;;
63398;SDS011;49533;-34.520;150.798;2022-09-23T00:58:11;4.53;;;1.98;;
63398;SDS011;49533;-34.520;150.798;2022-09-23T01:00:43;3.22;;;1.52;;
63398;SDS011;49533;-34.520;150.798;2022-09-23T01:03:11;2.85;;;1.45;;
63398;SDS011;49533;-34.520;150.798;2022-09-23T01:05:39;4.50;;;1.42;;
63398;SDS011;49533;-34.520;150.798;2022-09-23T01:08:08;7.78;;;1.63;;
63398;SDS011;49533;-34.520;150.798;2022-09-23T01:10:47;7.95;;;2.13;;
63398;SDS011;49533;-34.520;150.798;2022-09-23T01:14:01;5.40;;;1.92;;
63398;SDS011;49533;-34.520;150.798;2022-09-23T01:16:41;2.55;;;1.35;;
63398;SDS011;49533;-34.520;150.798;2022-09-23T01:19:40;6.10;;;2.17;;
63398;SDS011;49533;-34.520;150.798;2022-09-23T01:22:38;2.92;;;1.75;;
63398;SDS011;49533;-34.520;150.798;2022-09-23T01:25:18;2.03;;;1.40;;
63398;SDS011;49533;-34.520;150.798;2022-09-23T01:28:04;3.05;;;1.60;;
63398;SDS011;49533;-34.520;150.798;2022-09-23T01:30:44;7.70;;;1.77;;
63398;SDS011;49533;-34.520;150.798;2022-09-23T01:33:36;4.32;;;1.60;;
63398;SDS011;49533;-34.520;150.798;2022-09-23T01:36:25;7.80;;;1.60;;
63398;SDS011;49533;-34.520;150.798;2022-09-23T01:39:07;5.63;;;1.30;;
63398;SDS011;49533;-34.520;150.798;2022-09-23T01:41:44;5.20;;;1.75;;
63398;SDS011;49533;-34.520;150.798;2022-09-23T01:44:28;6.15;;;1.67;;
63398;SDS011;49533;-34.520;150.798;2022-09-23T01:47:05;6.75;;;1.80;;
63398;SDS011;49533;-34.520;150.798;2022-09-23T01:49:46;6.18;;;1.77;;
63398;SDS011;49533;-34.520;150.798;2022-09-23T01:52:25;4.05;;;1.67;;
63398;SDS011;49533;-34.520;150.798;2022-09-23T01:55:09;6.43;;;1.65;;
63398;SDS011;49533;-34.520;150.798;2022-09-23T01:57:45;7.32;;;1.55;;
63398;SDS011;49533;-34.520;150.798;2022-09-23T02:00:18;8.55;;;1.85;;
63398;SDS011;49533;-34.520;150.798;2022-09-23T02:02:49;6.93;;;1.67;;
63398;SDS011;49533;-34.520;150.798;2022-09-23T02:05:27;10.35;;;2.60;;
63398;SDS011;49533;-34.520;150.798;2022-09-23T02:08:05;8.90;;;1.95;;
63398;SDS011;49533;-34.520;150.798;2022-09-23T02:10:43;10.27;;;2.78;;
63398;SDS011;49533;-34.520;150.798;2022-09-23T02:13:22;9.15;;;2.30;;
63398;SDS011;49533;-34.520;150.798;2022-09-23T02:15:58;7.55;;;3.03;;
63398;SDS011;49533;-34.520;150.798;2022-09-23T02:18:34;9.43;;;3.35;;
63398;SDS011;49533;-34.520;150.798;2022-09-23T02:21:13;9.63;;;2.90;;
63398;SDS011;49533;-34.520;150.798;2022-09-23T02:23:43;11.25;;;2.58;;
63398;SDS011;49533;-34.520;150.798;2022-09-23T02:26:20;10.30;;;2.45;;
63398;SDS011;49533;-34.520;150.798;2022-09-23T02:29:04;8.07;;;2.38;;
63398;SDS011;49533;-34.520;150.798;2022-09-23T02:31:40;12.57;;;2.88;;
63398;SDS011;49533;-34.520;150.798;2022-09-23T02:34:33;8.68;;;2.67;;
63398;SDS011;49533;-34.520;150.798;2022-09-23T02:37:24;8.00;;;2.58;;
63398;SDS011;49533;-34.520;150.798;2022-09-23T02:45:45;7.43;;;2.03;;
63398;SDS011;49533;-34.520;150.798;2022-09-23T02:48:17;6.70;;;2.13;;
63398;SDS011;49533;-34.520;150.798;2022-09-23T02:53:15;10.13;;;3.65;;
63398;SDS011;49533;-34.520;150.798;2022-09-23T02:55:42;6.15;;;2.30;;
63398;SDS011;49533;-34.520;150.798;2022-09-23T02:58:09;6.15;;;2.13;;
63398;SDS011;49533;-34.520;150.798;2022-09-23T03:03:38;10.57;;;2.15;;
63398;SDS011;49533;-34.520;150.798;2022-09-23T03:06:26;7.75;;;2.75;;
63398;SDS011;49533;-34.520;150.798;2022-09-23T03:09:05;5.82;;;2.08;;
63398;SDS011;49533;-34.520;150.798;2022-09-23T03:11:39;7.68;;;2.00;;
63398;SDS011;49533;-34.520;150.798;2022-09-23T03:17:02;6.05;;;1.67;;
63398;SDS011;49533;-34.520;150.798;2022-09-23T03:19:35;7.63;;;2.25;;
63398;SDS011;49533;-34.520;150.798;2022-09-23T03:22:16;5.45;;;1.90;;
63398;SDS011;49533;-34.520;150.798;2022-09-23T03:24:48;6.38;;;2.10;;
63398;SDS011;49533;-34.520;150.798;2022-09-23T03:27:18;7.85;;;2.25;;
63398;SDS011;49533;-34.520;150.798;2022-09-23T03:29:51;9.52;;;2.75;;
63398;SDS011;49533;-34.520;150.798;2022-09-23T03:32:19;4.90;;;2.08;;
63398;SDS011;49533;-34.520;150.798;2022-09-23T03:34:51;5.65;;;2.08;;
63398;SDS011;49533;-34.520;150.798;2022-09-23T03:37:24;5.30;;;1.50;;
63398;SDS011;49533;-34.520;150.798;2022-09-23T03:40:08;12.20;;;3.08;;
63398;SDS011;49533;-34.520;150.798;2022-09-23T03:42:41;9.85;;;2.35;;
63398;SDS011;49533;-34.520;150.798;2022-09-23T03:45:11;6.22;;;2.25;;
63398;SDS011;49533;-34.520;150.798;2022-09-23T03:47:42;6.40;;;2.33;;
63398;SDS011;49533;-34.520;150.798;2022-09-23T03:50:11;6.28;;;2.53;;
63398;SDS011;49533;-34.520;150.798;2022-09-23T03:52:38;3.78;;;1.70;;
63398;SDS011;49533;-34.520;150.798;2022-09-23T03:55:06;6.70;;;2.40;;
63398;SDS011;49533;-34.520;150.798;2022-09-23T03:57:34;3.95;;;1.52;;
63398;SDS011;49533;-34.520;150.798;2022-09-23T04:00:02;4.63;;;1.75;;
63398;SDS011;49533;-34.520;150.798;2022-09-23T04:02:31;5.68;;;2.20;;
63398;SDS011;49533;-34.520;150.798;2022-09-23T04:04:58;5.25;;;2.28;;
63398;SDS011;49533;-34.520;150.798;2022-09-23T04:07:26;4.20;;;1.92;;
63398;SDS011;49533;-34.520;150.798;2022-09-23T04:09:53;4.15;;;1.85;;
63398;SDS011;49533;-34.520;150.798;2022-09-23T04:12:20;8.35;;;1.90;;
63398;SDS011;49533;-34.520;150.798;2022-09-23T04:14:48;8.43;;;2.35;;
63398;SDS011;49533;-34.520;150.798;2022-09-23T04:17:15;8.52;;;2.30;;
63398;SDS011;49533;-34.520;150.798;2022-09-23T04:19:42;4.03;;;2.13;;
63398;SDS011;49533;-34.520;150.798;2022-09-23T04:22:10;6.03;;;1.98;;
63398;SDS011;49533;-34.520;150.798;2022-09-23T04:24:37;8.25;;;2.03;;
63398;SDS011;49533;-34.520;150.798;2022-09-23T04:27:04;5.47;;;2.17;;
63398;SDS011;49533;-34.520;150.798;2022-09-23T04:29:31;5.60;;;1.58;;
63398;SDS011;49533;-34.520;150.798;2022-09-23T04:31:58;4.63;;;1.38;;
63398;SDS011;49533;-34.520;150.798;2022-09-23T04:34:25;5.03;;;1.58;;
63398;SDS011;49533;-34.520;150.798;2022-09-23T04:36:52;7.32;;;2.05;;
63398;SDS011;49533;-34.520;150.798;2022-09-23T04:39:19;8.35;;;2.28;;
63398;SDS011;49533;-34.520;150.798;2022-09-23T04:41:47;11.68;;;1.83;;
63398;SDS011;49533;-34.520;150.798;2022-09-23T04:44:14;7.38;;;1.55;;
63398;SDS011;49533;-34.520;150.798;2022-09-23T04:46:41;6.32;;;1.90;;
63398;SDS011;49533;-34.520;150.798;2022-09-23T04:49:13;5.82;;;1.25;;
63398;SDS011;49533;-34.520;150.798;2022-09-23T04:51:40;2.67;;;1.25;;
63398;SDS011;49533;-34.520;150.798;2022-09-23T04:54:08;3.75;;;1.58;;
63398;SDS011;49533;-34.520;150.798;2022-09-23T04:56:36;6.47;;;1.27;;
63398;SDS011;49533;-34.520;150.798;2022-09-23T04:59:04;8.13;;;1.63;;
63398;SDS011;49533;-34.520;150.798;2022-09-23T05:01:31;2.33;;;1.33;;
63398;SDS011;49533;-34.520;150.798;2022-09-23T05:04:00;2.92;;;1.38;;
63398;SDS011;49533;-34.520;150.798;2022-09-23T05:06:30;3.40;;;1.42;;
63398;SDS011;49533;-34.520;150.798;2022-09-23T05:09:00;2.83;;;1.10;;
63398;SDS011;49533;-34.520;150.798;2022-09-23T05:11:30;6.85;;;2.13;;
63398;SDS011;49533;-34.520;150.798;2022-09-23T05:13:58;2.22;;;1.27;;
63398;SDS011;49533;-34.520;150.798;2022-09-23T05:16:25;3.50;;;1.55;;
63398;SDS011;49533;-34.520;150.798;2022-09-23T05:18:53;10.65;;;2.80;;
63398;SDS011;49533;-34.520;150.798;2022-09-23T05:21:22;8.57;;;3.13;;
63398;SDS011;49533;-34.520;150.798;2022-09-23T05:23:52;4.70;;;1.92;;
63398;SDS011;49533;-34.520;150.798;2022-09-23T05:26:21;6.65;;;2.50;;
63398;SDS011;49533;-34.520;150.798;2022-09-23T05:28:50;4.00;;;1.73;;
63398;SDS011;49533;-34.520;150.798;2022-09-23T05:31:20;6.88;;;1.70;;
63398;SDS011;49533;-34.520;150.798;2022-09-23T05:33:49;6.18;;;2.00;;
63398;SDS011;49533;-34.520;150.798;2022-09-23T05:36:21;5.00;;;2.25;;
63398;SDS011;49533;-34.520;150.798;2022-09-23T05:38:49;8.15;;;2.25;;
63398;SDS011;49533;-34.520;150.798;2022-09-23T05:41:18;12.35;;;2.47;;
63398;SDS011;49533;-34.520;150.798;2022-09-23T05:43:48;5.22;;;2.08;;
63398;SDS011;49533;-34.520;150.798;2022-09-23T05:46:17;5.53;;;2.03;;
63398;SDS011;49533;-34.520;150.798;2022-09-23T05:48:46;8.05;;;2.33;;
63398;SDS011;49533;-34.520;150.798;2022-09-23T05:51:16;10.57;;;2.95;;
63398;SDS011;49533;-34.520;150.798;2022-09-23T05:53:46;6.72;;;2.28;;
63398;SDS011;49533;-34.520;150.798;2022-09-23T05:56:14;12.25;;;3.40;;
63398;SDS011;49533;-34.520;150.798;2022-09-23T05:58:43;12.07;;;3.28;;
63398;SDS011;49533;-34.520;150.798;2022-09-23T06:01:11;11.98;;;3.60;;
63398;SDS011;49533;-34.520;150.798;2022-09-23T06:03:40;11.75;;;2.50;;
63398;SDS011;49533;-34.520;150.798;2022-09-23T06:06:10;11.70;;;2.92;;
63398;SDS011;49533;-34.520;150.798;2022-09-23T06:08:39;16.17;;;3.55;;
63398;SDS011;49533;-34.520;150.798;2022-09-23T06:11:07;12.85;;;2.88;;
63398;SDS011;49533;-34.520;150.798;2022-09-23T06:13:37;9.85;;;2.67;;
63398;SDS011;49533;-34.520;150.798;2022-09-23T06:16:05;7.53;;;2.10;;
63398;SDS011;49533;-34.520;150.798;2022-09-23T06:18:36;7.90;;;1.92;;
63398;SDS011;49533;-34.520;150.798;2022-09-23T06:21:04;10.20;;;2.78;;
63398;SDS011;49533;-34.520;150.798;2022-09-23T06:23:32;10.77;;;2.88;;
63398;SDS011;49533;-34.520;150.798;2022-09-23T06:26:00;12.85;;;2.70;;
63398;SDS011;49533;-34.520;150.798;2022-09-23T06:28:29;7.93;;;2.63;;
63398;SDS011;49533;-34.520;150.798;2022-09-23T06:30:58;10.45;;;2.88;;
63398;SDS011;49533;-34.520;150.798;2022-09-23T06:33:27;8.68;;;2.05;;
63398;SDS011;49533;-34.520;150.798;2022-09-23T06:35:56;10.82;;;2.97;;
63398;SDS011;49533;-34.520;150.798;2022-09-23T06:38:25;8.30;;;2.78;;
63398;SDS011;49533;-34.520;150.798;2022-09-23T06:40:53;9.15;;;2.50;;
63398;SDS011;49533;-34.520;150.798;2022-09-23T06:43:21;9.00;;;2.40;;
63398;SDS011;49533;-34.520;150.798;2022-09-23T06:45:54;7.72;;;2.42;;
63398;SDS011;49533;-34.520;150.798;2022-09-23T06:48:23;7.95;;;2.75;;
63398;SDS011;49533;-34.520;150.798;2022-09-23T06:50:51;7.93;;;2.50;;
63398;SDS011;49533;-34.520;150.798;2022-09-23T06:53:20;6.53;;;2.13;;
63398;SDS011;49533;-34.520;150.798;2022-09-23T06:55:48;7.85;;;2.53;;
63398;SDS011;49533;-34.520;150.798;2022-09-23T06:58:25;8.70;;;2.97;;
63398;SDS011;49533;-34.520;150.798;2022-09-23T07:00:52;9.77;;;3.03;;
63398;SDS011;49533;-34.520;150.798;2022-09-23T07:03:25;6.13;;;2.42;;
63398;SDS011;49533;-34.520;150.798;2022-09-23T07:05:53;7.82;;;2.22;;
63398;SDS011;49533;-34.520;150.798;2022-09-23T07:08:22;6.30;;;2.00;;
63398;SDS011;49533;-34.520;150.798;2022-09-23T07:10:52;7.63;;;2.00;;
63398;SDS011;49533;-34.520;150.798;2022-09-23T07:13:21;7.30;;;2.00;;
63398;SDS011;49533;-34.520;150.798;2022-09-23T07:15:49;8.20;;;2.92;;
63398;SDS011;49533;-34.520;150.798;2022-09-23T07:18:19;8.18;;;2.10;;
63398;SDS011;49533;-34.520;150.798;2022-09-23T07:20:48;5.55;;;1.92;;
63398;SDS011;49533;-34.520;150.798;2022-09-23T07:23:16;4.05;;;1.83;;
63398;SDS011;49533;-34.520;150.798;2022-09-23T07:25:44;4.13;;;1.83;;
63398;SDS011;49533;-34.520;150.798;2022-09-23T07:28:12;7.65;;;2.13;;
63398;SDS011;49533;-34.520;150.798;2022-09-23T07:30:39;7.35;;;2.72;;
63398;SDS011;49533;-34.520;150.798;2022-09-23T07:33:07;3.83;;;1.60;;
63398;SDS011;49533;-34.520;150.798;2022-09-23T07:35:37;7.50;;;2.13;;
63398;SDS011;49533;-34.520;150.798;2022-09-23T07:38:06;4.97;;;1.63;;
63398;SDS011;49533;-34.520;150.798;2022-09-23T07:40:34;5.57;;;1.75;;
63398;SDS011;49533;-34.520;150.798;2022-09-23T07:43:04;5.80;;;2.53;;
63398;SDS011;49533;-34.520;150.798;2022-09-23T07:45:32;4.05;;;1.73;;
63398;SDS011;49533;-34.520;150.798;2022-09-23T07:48:00;3.03;;;1.67;;
63398;SDS011;49533;-34.520;150.798;2022-09-23T07:50:28;7.45;;;2.13;;
63398;SDS011;49533;-34.520;150.798;2022-09-23T07:52:55;7.40;;;2.03;;
63398;SDS011;49533;-34.520;150.798;2022-09-23T07:55:22;6.18;;;1.90;;
63398;SDS011;49533;-34.520;150.798;2022-09-23T07:57:49;3.35;;;1.75;;
63398;SDS011;49533;-34.520;150.798;2022-09-23T08:00:16;5.35;;;1.88;;
63398;SDS011;49533;-34.520;150.798;2022-09-23T08:02:44;4.07;;;1.50;;
63398;SDS011;49533;-34.520;150.798;2022-09-23T08:05:11;4.65;;;2.25;;
63398;SDS011;49533;-34.520;150.798;2022-09-23T08:07:38;5.00;;;1.88;;
63398;SDS011;49533;-34.520;150.798;2022-09-23T08:10:05;5.00;;;2.05;;
63398;SDS011;49533;-34.520;150.798;2022-09-23T08:12:33;2.22;;;1.27;;
63398;SDS011;49533;-34.520;150.798;2022-09-23T08:15:00;4.60;;;1.73;;
63398;SDS011;49533;-34.520;150.798;2022-09-23T08:17:28;5.03;;;1.60;;
63398;SDS011;49533;-34.520;150.798;2022-09-23T08:19:55;5.03;;;1.83;;
63398;SDS011;49533;-34.520;150.798;2022-09-23T08:22:23;5.43;;;2.00;;
63398;SDS011;49533;-34.520;150.798;2022-09-23T08:24:50;5.45;;;2.08;;
63398;SDS011;49533;-34.520;150.798;2022-09-23T08:27:17;2.38;;;1.38;;
63398;SDS011;49533;-34.520;150.798;2022-09-23T08:29:44;3.47;;;1.60;;
63398;SDS011;49533;-34.520;150.798;2022-09-23T08:32:12;4.85;;;1.90;;
63398;SDS011;49533;-34.520;150.798;2022-09-23T08:34:39;5.05;;;2.28;;
63398;SDS011;49533;-34.520;150.798;2022-09-23T08:37:09;4.05;;;1.67;;
63398;SDS011;49533;-34.520;150.798;2022-09-23T08:39:36;3.28;;;1.60;;
63398;SDS011;49533;-34.520;150.798;2022-09-23T08:42:06;4.88;;;1.88;;
63398;SDS011;49533;-34.520;150.798;2022-09-23T08:44:42;4.47;;;1.88;;
63398;SDS011;49533;-34.520;150.798;2022-09-23T08:47:22;4.10;;;1.85;;
63398;SDS011;49533;-34.520;150.798;2022-09-23T08:50:02;4.57;;;1.70;;
63398;SDS011;49533;-34.520;150.798;2022-09-23T08:52:35;3.13;;;1.60;;
63398;SDS011;49533;-34.520;150.798;2022-09-23T08:55:14;4.22;;;1.83;;
63398;SDS011;49533;-34.520;150.798;2022-09-23T08:57:56;3.20;;;1.38;;
63398;SDS011;49533;-34.520;150.798;2022-09-23T09:00:52;5.70;;;1.75;;
63398;SDS011;49533;-34.520;150.798;2022-09-23T09:03:47;3.70;;;1.77;;
63398;SDS011;49533;-34.520;150.798;2022-09-23T09:06:29;7.82;;;2.80;;
63398;SDS011;49533;-34.520;150.798;2022-09-23T09:09:04;4.75;;;2.00;;
63398;SDS011;49533;-34.520;150.798;2022-09-23T09:11:39;2.85;;;1.77;;
63398;SDS011;49533;-34.520;150.798;2022-09-23T09:16:56;8.13;;;1.85;;
63398;SDS011;49533;-34.520;150.798;2022-09-23T09:19:36;7.00;;;2.45;;
63398;SDS011;49533;-34.520;150.798;2022-09-23T09:22:19;5.70;;;2.15;;
63398;SDS011;49533;-34.520;150.798;2022-09-23T09:25:00;5.38;;;1.95;;
63398;SDS011;49533;-34.520;150.798;2022-09-23T09:27:40;6.93;;;2.58;;
63398;SDS011;49533;-34.520;150.798;2022-09-23T09:30:11;6.97;;;2.38;;
63398;SDS011;49533;-34.520;150.798;2022-09-23T09:32:47;3.80;;;1.83;;
63398;SDS011;49533;-34.520;150.798;2022-09-23T09:35:24;4.07;;;1.70;;
63398;SDS011;49533;-34.520;150.798;2022-09-23T09:38:03;6.35;;;2.00;;
63398;SDS011;49533;-34.520;150.798;2022-09-23T09:40:31;3.45;;;1.67;;
63398;SDS011;49533;-34.520;150.798;2022-09-23T09:43:00;5.80;;;1.77;;
63398;SDS011;49533;-34.520;150.798;2022-09-23T09:45:48;6.82;;;2.28;;
63398;SDS011;49533;-34.520;150.798;2022-09-23T09:48:40;6.72;;;2.05;;
63398;SDS011;49533;-34.520;150.798;2022-09-23T09:51:22;7.32;;;2.25;;
63398;SDS011;49533;-34.520;150.798;2022-09-23T09:53:52;10.15;;;3.40;;
63398;SDS011;49533;-34.520;150.798;2022-09-23T09:56:23;4.63;;;1.90;;
63398;SDS011;49533;-34.520;150.798;2022-09-23T09:58:59;4.72;;;2.13;;
63398;SDS011;49533;-34.520;150.798;2022-09-23T10:01:33;5.32;;;2.58;;
63398;SDS011;49533;-34.520;150.798;2022-09-23T10:04:03;5.72;;;2.00;;
63398;SDS011;49533;-34.520;150.798;2022-09-23T10:07:01;3.58;;;1.30;;
63398;SDS011;49533;-34.520;150.798;2022-09-23T10:09:34;6.50;;;2.50;;
63398;SDS011;49533;-34.520;150.798;2022-09-23T10:14:52;7.82;;;2.45;;
63398;SDS011;49533;-34.520;150.798;2022-09-23T10:17:31;6.57;;;2.03;;
63398;SDS011;49533;-34.520;150.798;2022-09-23T10:20:00;4.10;;;2.10;;
63398;SDS011;49533;-34.520;150.798;2022-09-23T10:22:34;6.05;;;2.17;;
63398;SDS011;49533;-34.520;150.798;2022-09-23T10:25:06;4.97;;;2.00;;
63398;SDS011;49533;-34.520;150.798;2022-09-23T10:27:41;7.07;;;2.65;;
63398;SDS011;49533;-34.520;150.798;2022-09-23T10:30:19;3.88;;;2.28;;
63398;SDS011;49533;-34.520;150.798;2022-09-23T10:32:50;5.47;;;2.08;;
63398;SDS011;49533;-34.520;150.798;2022-09-23T10:35:20;4.63;;;2.15;;
63398;SDS011;49533;-34.520;150.798;2022-09-23T10:37:50;5.47;;;2.20;;
63398;SDS011;49533;-34.520;150.798;2022-09-23T10:40:26;7.60;;;2.08;;
63398;SDS011;49533;-34.520;150.798;2022-09-23T10:46:21;6.35;;;2.00;;
63398;SDS011;49533;-34.520;150.798;2022-09-23T10:49:12;4.53;;;1.98;;
63398;SDS011;49533;-34.520;150.798;2022-09-23T10:52:00;7.70;;;2.10;;
63398;SDS011;49533;-34.520;150.798;2022-09-23T10:54:48;6.05;;;2.10;;
63398;SDS011;49533;-34.520;150.798;2022-09-23T10:57:39;5.60;;;2.20;;
63398;SDS011;49533;-34.520;150.798;2022-09-23T11:00:29;6.95;;;2.25;;
63398;SDS011;49533;-34.520;150.798;2022-09-23T11:06:13;7.38;;;2.30;;
63398;SDS011;49533;-34.520;150.798;2022-09-23T11:08:57;5.78;;;2.40;;
63398;SDS011;49533;-34.520;150.798;2022-09-23T11:11:39;9.73;;;2.28;;
63398;SDS011;49533;-34.520;150.798;2022-09-23T11:14:30;9.13;;;2.55;;
63398;SDS011;49533;-34.520;150.798;2022-09-23T11:17:25;5.63;;;2.63;;
63398;SDS011;49533;-34.520;150.798;2022-09-23T11:20:21;6.93;;;1.98;;
63398;SDS011;49533;-34.520;150.798;2022-09-23T11:23:11;9.20;;;2.15;;
63398;SDS011;49533;-34.520;150.798;2022-09-23T11:26:04;3.47;;;1.90;;
63398;SDS011;49533;-34.520;150.798;2022-09-23T11:28:52;5.63;;;2.05;;
63398;SDS011;49533;-34.520;150.798;2022-09-23T11:31:38;6.20;;;2.40;;
63398;SDS011;49533;-34.520;150.798;2022-09-23T11:34:27;4.18;;;1.83;;
63398;SDS011;49533;-34.520;150.798;2022-09-23T11:37:12;4.43;;;1.95;;
63398;SDS011;49533;-34.520;150.798;2022-09-23T11:39:56;5.55;;;1.92;;
63398;SDS011;49533;-34.520;150.798;2022-09-23T11:42:29;6.05;;;1.98;;
63398;SDS011;49533;-34.520;150.798;2022-09-23T11:45:05;4.07;;;2.00;;
63398;SDS011;49533;-34.520;150.798;2022-09-23T11:47:41;4.63;;;1.95;;
63398;SDS011;49533;-34.520;150.798;2022-09-23T11:50:22;4.25;;;1.80;;
63398;SDS011;49533;-34.520;150.798;2022-09-23T11:53:10;10.00;;;2.33;;
63398;SDS011;49533;-34.520;150.798;2022-09-23T11:55:47;6.22;;;2.28;;
63398;SDS011;49533;-34.520;150.798;2022-09-23T11:58:22;5.38;;;2.30;;
63398;SDS011;49533;-34.520;150.798;2022-09-23T12:00:57;4.68;;;2.05;;
63398;SDS011;49533;-34.520;150.798;2022-09-23T12:03:35;3.83;;;2.33;;
63398;SDS011;49533;-34.520;150.798;2022-09-23T12:06:18;6.55;;;2.00;;
63398;SDS011;49533;-34.520;150.798;2022-09-23T12:08:50;7.00;;;1.85;;
63398;SDS011;49533;-34.520;150.798;2022-09-23T12:11:29;4.55;;;2.05;;
63398;SDS011;49533;-34.520;150.798;2022-09-23T12:14:17;3.80;;;1.85;;
63398;SDS011;49533;-34.520;150.798;2022-09-23T12:20:02;6.35;;;1.88;;
63398;SDS011;49533;-34.520;150.798;2022-09-23T12:25:49;5.60;;;1.88;;
63398;SDS011;49533;-34.520;150.798;2022-09-23T12:28:23;8.73;;;2.80;;
63398;SDS011;49533;-34.520;150.798;2022-09-23T12:33:25;6.15;;;2.00;;
63398;SDS011;49533;-34.520;150.798;2022-09-23T12:35:55;3.53;;;1.80;;
63398;SDS011;49533;-34.520;150.798;2022-09-23T12:38:33;8.23;;;2.33;;
63398;SDS011;49533;-34.520;150.798;2022-09-23T12:41:52;4.97;;;1.95;;
63398;SDS011;49533;-34.520;150.798;2022-09-23T12:43:57;5.65;;;1.98;;
63398;SDS011;49533;-34.520;150.798;2022-09-23T12:49:20;5.40;;;2.10;;
63398;SDS011;49533;-34.520;150.798;2022-09-23T12:54:51;4.05;;;2.17;;
63398;SDS011;49533;-34.520;150.798;2022-09-23T13:00:21;4.40;;;2.63;;
63398;SDS011;49533;-34.520;150.798;2022-09-23T13:02:54;2.63;;;2.15;;
63398;SDS011;49533;-34.520;150.798;2022-09-23T13:05:42;6.00;;;3.03;;
63398;SDS011;49533;-34.520;150.798;2022-09-23T13:08:27;5.68;;;3.28;;
63398;SDS011;49533;-34.520;150.798;2022-09-23T13:10:56;4.88;;;2.58;;
63398;SDS011;49533;-34.520;150.798;2022-09-23T13:13:27;5.03;;;2.97;;
63398;SDS011;49533;-34.520;150.798;2022-09-23T13:16:09;7.60;;;3.22;;
63398;SDS011;49533;-34.520;150.798;2022-09-23T13:18:54;4.47;;;2.80;;
63398;SDS011;49533;-34.520;150.798;2022-09-23T13:24:35;4.50;;;3.08;;
63398;SDS011;49533;-34.520;150.798;2022-09-23T13:27:11;3.83;;;2.83;;
63398;SDS011;49533;-34.520;150.798;2022-09-23T13:29:54;4.90;;;3.63;;
63398;SDS011;49533;-34.520;150.798;2022-09-23T13:32:43;7.93;;;3.78;;
63398;SDS011;49533;-34.520;150.798;2022-09-23T13:35:23;3.72;;;3.40;;
63398;SDS011;49533;-34.520;150.798;2022-09-23T13:37:55;5.13;;;3.40;;
63398;SDS011;49533;-34.520;150.798;2022-09-23T13:40:24;6.20;;;3.92;;
63398;SDS011;49533;-34.520;150.798;2022-09-23T13:42:58;6.30;;;3.47;;
63398;SDS011;49533;-34.520;150.798;2022-09-23T13:45:30;6.32;;;3.70;;
63398;SDS011;49533;-34.520;150.798;2022-09-23T13:48:04;6.05;;;3.75;;
63398;SDS011;49533;-34.520;150.798;2022-09-23T13:50:36;4.87;;;3.60;;
63398;SDS011;49533;-34.520;150.798;2022-09-23T13:53:07;5.40;;;3.85;;
63398;SDS011;49533;-34.520;150.798;2022-09-23T13:55:38;7.97;;;4.40;;
63398;SDS011;49533;-34.520;150.798;2022-09-23T14:00:48;9.45;;;4.93;;
63398;SDS011;49533;-34.520;150.798;2022-09-23T14:03:18;4.65;;;3.72;;
63398;SDS011;49533;-34.520;150.798;2022-09-23T14:05:53;5.95;;;4.18;;
63398;SDS011;49533;-34.520;150.798;2022-09-23T14:08:21;4.97;;;3.80;;
63398;SDS011;49533;-34.520;150.798;2022-09-23T14:10:49;7.05;;;4.10;;
63398;SDS011;49533;-34.520;150.798;2022-09-23T14:13:20;4.93;;;3.95;;
63398;SDS011;49533;-34.520;150.798;2022-09-23T14:15:53;6.00;;;4.10;;
63398;SDS011;49533;-34.520;150.798;2022-09-23T14:18:27;7.60;;;4.50;;
63398;SDS011;49533;-34.520;150.798;2022-09-23T14:20:59;9.00;;;5.03;;
63398;SDS011;49533;-34.520;150.798;2022-09-23T14:23:26;4.10;;;3.70;;
63398;SDS011;49533;-34.520;150.798;2022-09-23T14:25:54;6.00;;;4.07;;
63398;SDS011;49533;-34.520;150.798;2022-09-23T14:28:22;9.80;;;4.32;;
63398;SDS011;49533;-34.520;150.798;2022-09-23T14:30:53;5.13;;;4.47;;
63398;SDS011;49533;-34.520;150.798;2022-09-23T14:33:25;6.05;;;4.80;;
63398;SDS011;49533;-34.520;150.798;2022-09-23T14:36:03;5.20;;;4.13;;
63398;SDS011;49533;-34.520;150.798;2022-09-23T14:38:59;6.30;;;4.28;;
63398;SDS011;49533;-34.520;150.798;2022-09-23T14:41:33;5.93;;;4.50;;
63398;SDS011;49533;-34.520;150.798;2022-09-23T14:44:04;4.68;;;4.28;;
63398;SDS011;49533;-34.520;150.798;2022-09-23T14:46:33;10.10;;;4.38;;
63398;SDS011;49533;-34.520;150.798;2022-09-23T14:49:13;5.18;;;4.30;;
63398;SDS011;49533;-34.520;150.798;2022-09-23T14:51:48;4.85;;;4.25;;
63398;SDS011;49533;-34.520;150.798;2022-09-23T14:54:22;6.93;;;4.93;;
63398;SDS011;49533;-34.520;150.798;2022-09-23T14:56:59;7.13;;;4.85;;
63398;SDS011;49533;-34.520;150.798;2022-09-23T14:59:32;5.20;;;4.63;;
63398;SDS011;49533;-34.520;150.798;2022-09-23T15:02:24;8.50;;;4.97;;
63398;SDS011;49533;-34.520;150.798;2022-09-23T15:05:10;5.63;;;5.13;;
63398;SDS011;49533;-34.520;150.798;2022-09-23T15:07:43;7.43;;;5.20;;
63398;SDS011;49533;-34.520;150.798;2022-09-23T15:10:19;7.50;;;5.55;;
63398;SDS011;49533;-34.520;150.798;2022-09-23T15:12:50;6.95;;;5.40;;
63398;SDS011;49533;-34.520;150.798;2022-09-23T15:15:20;5.90;;;5.40;;
63398;SDS011;49533;-34.520;150.798;2022-09-23T15:17:52;6.68;;;5.10;;
63398;SDS011;49533;-34.520;150.798;2022-09-23T15:20:21;7.72;;;5.47;;
63398;SDS011;49533;-34.520;150.798;2022-09-23T15:22:51;6.32;;;5.43;;
63398;SDS011;49533;-34.520;150.798;2022-09-23T15:25:25;6.05;;;5.45;;
63398;SDS011;49533;-34.520;150.798;2022-09-23T15:28:12;6.60;;;5.90;;
63398;SDS011;49533;-34.520;150.798;2022-09-23T15:30:44;6.35;;;5.50;;
63398;SDS011;49533;-34.520;150.798;2022-09-23T15:33:12;6.72;;;6.03;;
63398;SDS011;49533;-34.520;150.798;2022-09-23T15:35:41;7.35;;;5.72;;